West Bend, Wisconsin
Current Conditions -  °F | °C
As of 8:30 AM on Monday 26 Jan 2015 (Local Time) from KETB Reporting Station
Overcast Overcast  
Wind Chill: 13°   Ceiling: 6000
Heat Index: 19°   Visibility: 10mi
Dew Point: 14°   Wind: 5mph
Humidity: 80%   Direction: 190°S
Pressure: 29.92"   Gusts: NA
Location:  43.41°N, 88.18°W
Report Text: KETB 261430Z AUTO 19004KT 10SM SCT048 BKN060 OVC095 M07/M10 A2992 RMK AO2
Loading
Personal Weather Stations






























Interactive Weather Map New forecast layout! Learn more

10-Day Weather Forecast

Advertisements
Track Severe Weather on mobile